Time;durP1;ratioP1;P1;durP2;ratioP2;P2;SDS_P1;SDS_P2;PMS_P1;PMS_P2;Temp;Humidity;BMP_temperature;BMP_pressure;BME280_temperature;BME280_humidity;BME280_pressure;Samples;Min_cycle;Max_cycle;Signal;HPM_P1;HPM_P2
2023/04/17 06:51:20;;;;;;;29.98;20.67;;;7.90;99.90;;;;;;5020896;28;20107;-82
2023/04/17 06:53:47;;;;;;;32.17;21.95;;;7.90;99.90;;;;;;4998955;28;20115;-86
2023/04/17 06:56:13;;;;;;;30.75;21.45;;;9.00;99.90;;;;;;4991804;28;20046;-82
2023/04/17 06:58:42;;;;;;;33.33;22.20;;;8.10;99.90;;;;;;4982390;28;20096;-83
2023/04/17 07:01:10;;;;;;;28.98;21.80;;;8.10;99.90;;;;;;4990833;28;20189;-83
2023/04/17 07:03:36;;;;;;;29.27;21.10;;;8.30;99.90;;;;;;5000322;28;20072;-81
2023/04/17 07:06:05;;;;;;;28.85;22.10;;;8.10;99.90;;;;;;4986622;28;20053;-86
2023/04/17 07:09:01;;;;;;;33.05;21.13;;;8.20;99.90;;;;;;5000888;28;20120;-85
2023/04/17 07:11:35;;;;;;;29.17;21.63;;;8.20;99.90;;;;;;4999246;28;20062;-86
2023/04/17 07:14:25;;;;;;;26.85;20.52;;;10.10;99.90;;;;;;5021338;28;20576;-85
2023/04/17 07:17:14;;;;;;;26.48;19.48;;;8.30;99.90;;;;;;5003049;28;20412;-86
2023/04/17 07:19:39;;;;;;;25.80;20.25;;;8.40;99.90;;;;;;4980785;28;20124;-82
2023/04/17 07:22:05;;;;;;;27.02;20.90;;;8.40;99.90;;;;;;5021229;28;20050;-85
2023/04/17 07:24:33;;;;;;;26.42;20.55;;;8.50;99.90;;;;;;4992695;28;20048;-87
2023/04/17 07:27:00;;;;;;;25.10;20.05;;;8.50;99.90;;;;;;5023950;28;20038;-88
2023/04/17 07:29:26;;;;;;;28.15;20.75;;;8.50;99.90;;;;;;5002814;28;20157;-88
2023/04/17 07:31:52;;;;;;;30.15;22.30;;;10.30;99.90;;;;;;4994257;28;20042;-82
2023/04/17 07:34:20;;;;;;;26.52;21.27;;;8.60;99.90;;;;;;5006335;28;20544;-83
2023/04/17 07:36:48;;;;;;;25.92;21.30;;;9.30;99.90;;;;;;5007291;28;20081;-83
2023/04/17 07:39:14;;;;;;;26.15;21.50;;;8.70;99.90;;;;;;5016533;28;20128;-84
2023/04/17 07:41:39;;;;;;;24.92;21.77;;;8.90;99.90;;;;;;4981641;28;20141;-83
2023/04/17 07:44:05;;;;;;;26.20;20.88;;;8.80;99.90;;;;;;5022090;28;20052;-84
2023/04/17 07:46:31;;;;;;;30.52;23.95;;;8.80;99.90;;;;;;5005326;28;20041;-84
2023/04/17 07:48:57;;;;;;;27.42;22.33;;;9.20;99.90;;;;;;4989308;28;20727;-84
2023/04/17 07:51:23;;;;;;;23.92;21.45;;;8.90;99.90;;;;;;5021489;28;20045;-84
2023/04/17 07:53:49;;;;;;;28.52;23.17;;;9.20;99.90;;;;;;5028435;28;20129;-85
2023/04/17 07:56:16;;;;;;;28.05;23.63;;;9.30;99.90;;;;;;5024462;28;20497;-84
2023/04/17 07:58:43;;;;;;;27.45;23.40;;;9.20;99.90;;;;;;5031366;28;20409;-85
2023/04/17 08:01:09;;;;;;;26.95;24.00;;;10.70;99.90;;;;;;5025228;28;20053;-85
2023/04/17 08:03:35;;;;;;;28.77;22.38;;;9.00;99.90;;;;;;4989388;28;20053;-84
2023/04/17 08:06:00;;;;;;;25.95;23.20;;;10.70;99.90;;;;;;4989856;28;20088;-84
2023/04/17 08:08:26;;;;;;;31.48;25.17;;;9.20;99.90;;;;;;5023283;28;20133;-84
2023/04/17 08:10:52;;;;;;;28.27;24.98;;;9.30;99.90;;;;;;5002995;28;20064;-84
2023/04/17 08:13:17;;;;;;;31.17;25.02;;;9.20;99.90;;;;;;5023138;28;20049;-84
2023/04/17 08:15:44;;;;;;;29.20;25.65;;;9.30;99.90;;;;;;5022730;28;20037;-85
2023/04/17 08:18:10;;;;;;;29.50;25.38;;;10.80;99.90;;;;;;5002740;28;20053;-85
2023/04/17 08:20:36;;;;;;;32.05;26.27;;;9.40;99.90;;;;;;4988143;28;20049;-84
2023/04/17 08:23:03;;;;;;;31.63;28.13;;;11.60;99.90;;;;;;5023595;28;20037;-84
2023/04/17 08:25:29;;;;;;;31.08;26.55;;;9.50;99.90;;;;;;5005102;28;20132;-85
2023/04/17 08:27:55;;;;;;;34.97;27.35;;;9.60;99.90;;;;;;5010754;28;20073;-85
2023/04/17 08:30:20;;;;;;;31.75;26.25;;;10.40;99.90;;;;;;5008456;28;20060;-85
2023/04/17 08:32:49;;;;;;;31.63;27.38;;;9.60;99.90;;;;;;5003954;28;20081;-84
2023/04/17 08:35:16;;;;;;;29.10;24.88;;;9.70;99.90;;;;;;5003284;28;20042;-84
2023/04/17 08:37:45;;;;;;;29.58;25.15;;;9.80;99.90;;;;;;5005023;28;20060;-84
2023/04/17 08:40:12;;;;;;;29.42;25.25;;;9.90;99.90;;;;;;5022068;28;20052;-84
2023/04/17 08:42:40;;;;;;;26.85;24.00;;;10.00;99.90;;;;;;4991716;28;20057;-84
2023/04/17 08:45:10;;;;;;;29.85;25.52;;;10.00;99.90;;;;;;5022277;28;20060;-84
2023/04/17 08:47:41;;;;;;;28.17;25.23;;;10.20;99.90;;;;;;4996015;28;20054;-84
2023/04/17 08:50:17;;;;;;;29.08;25.25;;;10.30;99.90;;;;;;5007959;28;20056;-84
2023/04/17 08:52:45;;;;;;;30.90;25.02;;;10.30;99.90;;;;;;5003579;28;20058;-84
2023/04/17 08:55:13;;;;;;;30.80;27.25;;;11.80;99.90;;;;;;5020578;28;20053;-84
2023/04/17 08:58:04;;;;;;;28.60;25.52;;;12.00;99.90;;;;;;5005186;28;20042;-84
2023/04/17 09:00:36;;;;;;;27.23;24.35;;;10.40;99.90;;;;;;5003772;28;20056;-78
2023/04/17 09:03:03;;;;;;;25.13;22.52;;;10.50;99.90;;;;;;4989300;28;20038;-88
2023/04/17 09:05:35;;;;;;;26.15;22.17;;;10.60;99.90;;;;;;5010704;28;20050;-87
2023/04/17 09:08:22;;;;;;;23.45;20.92;;;10.20;99.90;;;;;;5005039;28;20049;-87
2023/04/17 09:10:53;;;;;;;24.25;21.73;;;12.50;99.90;;;;;;4990658;28;20057;-86
2023/04/17 09:13:21;;;;;;;21.17;19.17;;;13.10;99.90;;;;;;4988359;28;20056;-87
2023/04/17 09:16:04;;;;;;;22.92;20.50;;;11.00;99.90;;;;;;5021407;28;20050;-85
2023/04/17 09:18:30;;;;;;;23.55;21.10;;;10.70;99.90;;;;;;5005531;28;20077;-86
2023/04/17 09:20:58;;;;;;;25.40;21.02;;;10.80;99.90;;;;;;4997283;28;20517;-87
2023/04/17 09:23:26;;;;;;;23.60;20.83;;;12.40;99.90;;;;;;5003906;28;20101;-85
2023/04/17 09:26:14;;;;;;;32.80;20.30;;;12.30;99.90;;;;;;5002422;28;20394;-88
2023/04/17 09:28:40;;;;;;;52.08;21.33;;;10.90;99.90;;;;;;5022179;28;20098;-88
2023/04/17 09:31:16;;;;;;;22.33;19.27;;;12.60;99.90;;;;;;4988312;28;20136;-87
2023/04/17 09:34:09;;;;;;;21.58;19.13;;;13.30;99.90;;;;;;5017037;28;20056;-89
2023/04/17 09:36:37;;;;;;;20.95;18.83;;;11.20;99.90;;;;;;5003356;28;20068;-88
2023/04/17 09:39:25;;;;;;;21.08;16.92;;;12.50;99.90;;;;;;4987066;28;20057;-88
2023/04/17 09:42:06;;;;;;;19.88;17.30;;;13.10;99.90;;;;;;5007396;28;20045;-88
2023/04/17 09:44:36;;;;;;;19.50;17.35;;;11.60;99.90;;;;;;4991611;28;20052;-88
2023/04/17 09:47:03;;;;;;;19.08;16.95;;;13.70;99.90;;;;;;5000521;28;20049;-88
2023/04/17 09:49:44;;;;;;;21.85;17.85;;;11.40;99.90;;;;;;4998517;28;20050;-88
2023/04/17 09:52:10;;;;;;;18.98;16.85;;;12.30;99.90;;;;;;5006871;28;20409;-88
2023/04/17 09:54:40;;;;;;;21.38;18.00;;;11.80;99.90;;;;;;5000948;28;20053;-88
2023/04/17 09:57:07;;;;;;;19.27;17.05;;;12.00;99.90;;;;;;5022742;28;20058;-87
2023/04/17 09:59:37;;;;;;;19.15;17.15;;;14.00;99.90;;;;;;5003973;28;20068;-88
2023/04/17 10:02:05;;;;;;;18.85;16.77;;;13.30;99.90;;;;;;5028912;28;20417;-88
2023/04/17 10:04:32;;;;;;;19.95;16.70;;;12.00;99.90;;;;;;5007004;28;20057;-87
2023/04/17 10:06:58;;;;;;;18.35;16.50;;;12.40;99.90;;;;;;5001859;28;20137;-89
2023/04/17 10:09:23;;;;;;;20.55;16.92;;;12.70;99.90;;;;;;4997776;28;20038;-87
2023/04/17 10:11:50;;;;;;;18.40;16.25;;;12.80;99.90;;;;;;5003220;28;20912;-87
2023/04/17 10:14:25;;;;;;;19.25;16.73;;;13.90;99.90;;;;;;4988102;28;20065;-89
2023/04/17 10:16:51;;;;;;;19.77;15.30;;;12.20;99.90;;;;;;5020755;28;20052;-87
2023/04/17 10:19:31;;;;;;;18.02;16.15;;;12.20;99.90;;;;;;4984373;28;20809;-88
2023/04/17 10:22:18;;;;;;;19.55;16.58;;;14.50;99.90;;;;;;4991084;28;20045;-89
2023/04/17 10:24:51;;;;;;;20.30;14.70;;;12.30;99.90;;;;;;4987166;28;20053;-89
2023/04/17 10:27:26;;;;;;;21.53;15.10;;;12.40;99.90;;;;;;5018196;28;20050;-85
2023/04/17 10:30:03;;;;;;;16.58;14.82;;;13.20;99.90;;;;;;5019922;28;20790;-89
2023/04/17 10:32:30;;;;;;;16.15;14.65;;;14.60;99.90;;;;;;4987193;28;20057;-88
2023/04/17 10:34:59;;;;;;;15.88;14.20;;;14.90;99.90;;;;;;4985493;28;20065;-88
2023/04/17 10:37:47;;;;;;;19.48;14.77;;;12.70;99.90;;;;;;4983513;28;20045;-88
2023/04/17 10:40:20;;;;;;;15.25;13.65;;;12.60;99.90;;;;;;4990625;28;20054;-91
2023/04/17 10:43:07;;;;;;;17.73;13.77;;;12.60;99.90;;;;;;4984529;28;20509;-88
2023/04/17 10:45:58;;;;;;;15.95;14.38;;;12.60;99.90;;;;;;4985671;28;20444;-89
2023/04/17 10:48:40;;;;;;;17.05;15.15;;;12.90;99.90;;;;;;4983221;28;20056;-87
2023/04/17 10:51:27;;;;;;;15.90;14.30;;;13.00;99.90;;;;;;4998314;28;20531;-87
2023/04/17 10:58:22;;;;;;;21.00;15.85;;;13.20;99.90;;;;;;5010445;28;20040;-84
2023/04/17 11:01:46;;;;;;;20.08;15.65;;;15.40;99.90;;;;;;4989736;28;20121;-84
2023/04/17 11:05:06;;;;;;;18.75;15.73;;;13.50;99.90;;;;;;4978420;28;20462;-83
2023/04/17 11:11:55;;;;;;;16.95;14.45;;;13.70;99.90;;;;;;4979932;28;20046;-87
2023/04/17 11:15:28;;;;;;;16.98;15.13;;;13.70;99.90;;;;;;4979461;28;20126;-84
2023/04/17 11:18:44;;;;;;;18.90;14.80;;;13.80;99.90;;;;;;4980380;28;20097;-88
2023/04/17 11:21:14;;;;;;;16.45;14.70;;;13.90;99.90;;;;;;4956296;28;20047;-86
2023/04/17 11:23:48;;;;;;;18.92;14.73;;;13.90;99.90;;;;;;4946398;28;20102;-85
2023/04/17 11:26:14;;;;;;;18.15;14.35;;;14.40;99.90;;;;;;4966950;28;20042;-90
2023/04/17 11:28:40;;;;;;;16.60;14.95;;;14.00;99.90;;;;;;4967007;28;20061;-90
2023/04/17 11:31:05;;;;;;;19.17;14.73;;;14.10;99.90;;;;;;4962174;28;20491;-90
2023/04/17 11:33:35;;;;;;;20.02;15.48;;;15.10;99.90;;;;;;4968529;28;20135;-89
2023/04/17 11:36:05;;;;;;;17.60;14.73;;;14.40;99.90;;;;;;4964196;28;20057;-90
2023/04/17 11:38:31;;;;;;;18.13;15.35;;;14.40;99.90;;;;;;4966389;28;20530;-89
2023/04/17 11:40:59;;;;;;;21.55;16.33;;;14.50;99.90;;;;;;4963032;28;20150;-92
2023/04/17 11:43:27;;;;;;;17.67;15.88;;;15.70;99.90;;;;;;4945989;28;20113;-90
2023/04/17 11:46:04;;;;;;;17.45;15.50;;;14.70;99.90;;;;;;4966533;28;20065;-90
2023/04/17 11:48:31;;;;;;;17.73;14.55;;;14.90;99.90;;;;;;4963832;28;20957;-83
2023/04/17 11:51:03;;;;;;;17.88;14.88;;;15.20;99.90;;;;;;4945656;28;20089;-86
2023/04/17 11:53:29;;;;;;;19.90;14.75;;;15.10;99.90;;;;;;4965112;28;20464;-87
2023/04/17 11:56:12;;;;;;;19.15;15.02;;;17.00;99.90;;;;;;4947958;28;20059;-86
2023/04/17 11:58:51;;;;;;;14.82;13.30;;;15.20;99.90;;;;;;4947566;28;20126;-86
2023/04/17 12:01:25;;;;;;;15.70;13.75;;;15.30;99.90;;;;;;4961377;28;20076;-87
2023/04/17 12:03:52;;;;;;;16.00;13.60;;;17.50;99.90;;;;;;5013894;28;20045;-86
2023/04/17 12:06:17;;;;;;;19.02;13.63;;;15.60;99.90;;;;;;5000890;28;20482;-87
2023/04/17 12:08:50;;;;;;;19.90;13.95;;;18.00;99.90;;;;;;5008307;28;20045;-86
2023/04/17 12:11:24;;;;;;;18.70;13.68;;;15.80;99.90;;;;;;5029203;28;20053;-87
2023/04/17 12:13:54;;;;;;;16.50;13.65;;;17.30;99.90;;;;;;4996487;28;20058;-87
2023/04/17 12:16:23;;;;;;;14.77;12.90;;;15.70;99.90;;;;;;5023693;28;20056;-86
2023/04/17 12:18:49;;;;;;;17.30;13.45;;;15.70;99.90;;;;;;5001798;28;20045;-86
2023/04/17 12:21:15;;;;;;;16.02;13.30;;;15.80;99.90;;;;;;4987080;28;20050;-86
2023/04/17 12:23:41;;;;;;;16.58;13.18;;;15.90;99.90;;;;;;4992239;28;20061;-86
2023/04/17 12:26:07;;;;;;;14.50;13.00;;;16.40;99.90;;;;;;4989278;28;20137;-86
2023/04/17 12:28:34;;;;;;;22.27;14.75;;;16.50;99.90;;;;;;5005832;28;20045;-86
2023/04/17 12:30:59;;;;;;;17.70;14.50;;;15.90;99.90;;;;;;5010280;28;20049;-86
2023/04/17 12:33:25;;;;;;;16.67;13.75;;;16.00;99.90;;;;;;5003845;28;20052;-88
2023/04/17 12:35:51;;;;;;;18.67;13.80;;;17.70;99.90;;;;;;4985839;28;20058;-87
2023/04/17 12:38:17;;;;;;;16.10;13.52;;;14.50;99.90;;;;;;4995763;28;20048;-87
2023/04/17 12:40:44;;;;;;;17.08;15.38;;;16.30;99.90;;;;;;5021095;28;20051;-86
2023/04/17 12:43:13;;;;;;;14.73;13.23;;;16.50;99.90;;;;;;4988686;28;20085;-89
2023/04/17 12:45:40;;;;;;;21.48;13.70;;;16.20;99.90;;;;;;5008326;28;20116;-84
2023/04/17 12:48:07;;;;;;;16.10;14.13;;;18.20;99.90;;;;;;5023214;28;20046;-87
2023/04/17 12:50:42;;;;;;;16.85;14.20;;;16.80;99.90;;;;;;5000137;28;20050;-90
2023/04/17 12:53:12;;;;;;;20.05;14.65;;;18.40;99.90;;;;;;4988490;28;20049;-87
2023/04/17 12:55:40;;;;;;;15.73;13.82;;;18.30;99.90;;;;;;4969523;28;20057;-87
2023/04/17 12:58:16;;;;;;;17.02;13.15;;;16.30;99.90;;;;;;5023470;28;20485;-88
2023/04/17 13:00:50;;;;;;;15.80;12.85;;;17.30;99.90;;;;;;4988864;28;20045;-90
2023/04/17 13:03:34;;;;;;;17.63;12.25;;;17.10;99.90;;;;;;5014231;28;20544;-88
2023/04/17 13:06:00;;;;;;;14.88;11.98;;;17.10;99.90;;;;;;4990409;28;20057;-92
2023/04/17 13:08:29;;;;;;;13.88;12.00;;;17.10;99.90;;;;;;4990724;28;20049;-86
2023/04/17 13:10:55;;;;;;;14.63;13.05;;;19.10;99.90;;;;;;4985561;28;20088;-86
2023/04/17 13:13:21;;;;;;;13.70;12.27;;;17.30;99.90;;;;;;5004935;28;20053;-86
2023/04/17 13:15:47;;;;;;;14.68;12.27;;;17.30;99.90;;;;;;5001618;28;20038;-86
2023/04/17 13:18:13;;;;;;;14.32;12.93;;;19.30;99.90;;;;;;5009561;28;20041;-87
2023/04/17 13:20:39;;;;;;;18.08;12.65;;;17.40;99.90;;;;;;4991310;28;20112;-81
2023/04/17 13:23:05;;;;;;;15.68;12.70;;;17.70;99.90;;;;;;5028569;28;20041;-86
2023/04/17 13:25:32;;;;;;;15.18;12.52;;;17.60;99.90;;;;;;5001311;28;20068;-85
2023/04/17 13:27:57;;;;;;;16.17;12.70;;;17.50;99.90;;;;;;5002713;28;20452;-86
2023/04/17 13:30:25;;;;;;;18.27;12.75;;;19.10;99.90;;;;;;5019902;28;20061;-86
2023/04/17 13:32:50;;;;;;;14.98;12.80;;;17.80;99.90;;;;;;5025485;28;20045;-86
2023/04/17 13:35:16;;;;;;;14.60;11.60;;;18.90;99.90;;;;;;5003789;28;20056;-83
2023/04/17 13:37:42;;;;;;;13.27;11.35;;;17.90;99.90;;;;;;5018261;28;20042;-85
2023/04/17 13:40:11;;;;;;;13.43;10.55;;;18.10;99.90;;;;;;5001078;28;20049;-85
2023/04/17 13:42:39;;;;;;;15.43;12.80;;;18.00;99.90;;;;;;4991167;28;20042;-86
2023/04/17 13:45:08;;;;;;;15.15;12.25;;;19.80;99.90;;;;;;5012348;28;20046;-86
2023/04/17 13:47:37;;;;;;;13.60;12.20;;;18.10;99.90;;;;;;4989954;28;20514;-86
2023/04/17 13:51:04;;;;;;;12.93;11.57;;;18.20;99.90;;;;;;5020518;28;20057;-89
2023/04/17 14:01:28;;;;;;;16.48;10.73;;;18.30;99.90;;;;;;5027537;28;20499;-83
2023/04/17 14:03:54;;;;;;;12.10;9.48;;;18.30;99.90;;;;;;5009499;28;20051;-81
2023/04/17 14:06:20;;;;;;;15.23;9.40;;;18.20;99.90;;;;;;5012600;28;20037;-81
2023/04/17 14:08:46;;;;;;;20.33;11.55;;;18.20;99.90;;;;;;4993630;28;20046;-84
2023/04/17 14:11:12;;;;;;;29.80;11.50;;;19.20;99.90;;;;;;4999010;28;20050;-89
2023/04/17 14:13:38;;;;;;;40.92;13.07;;;18.20;99.90;;;;;;4992782;28;20042;-83
2023/04/17 14:16:04;;;;;;;16.42;11.20;;;19.80;99.90;;;;;;5008842;28;20046;-82
2023/04/17 14:18:51;;;;;;;11.73;9.88;;;16.50;99.90;;;;;;5022420;28;20088;-85
2023/04/17 14:21:22;;;;;;;11.27;10.18;;;18.10;99.90;;;;;;5001631;28;20107;-83
2023/04/17 14:23:50;;;;;;;12.93;10.98;;;18.10;99.90;;;;;;4992119;28;20049;-80
2023/04/17 14:26:16;;;;;;;14.55;10.32;;;19.80;99.90;;;;;;5009417;28;20057;-81
2023/04/17 14:28:41;;;;;;;12.07;9.60;;;18.10;99.90;;;;;;5000209;28;20113;-81
2023/04/17 14:31:07;;;;;;;12.25;9.90;;;18.10;99.90;;;;;;5000931;28;20045;-85
2023/04/17 14:33:33;;;;;;;11.52;9.15;;;18.10;99.90;;;;;;5019707;28;20077;-82
2023/04/17 14:35:58;;;;;;;16.98;10.60;;;18.10;99.90;;;;;;5004195;28;20132;-81
2023/04/17 14:38:24;;;;;;;12.48;9.63;;;18.00;99.90;;;;;;5019801;28;20050;-85
2023/04/17 14:40:51;;;;;;;13.40;9.80;;;18.30;99.90;;;;;;4999601;28;20048;-84
2023/04/17 14:43:16;;;;;;;11.30;9.82;;;18.20;99.90;;;;;;5001214;28;20108;-86
2023/04/17 14:45:43;;;;;;;12.57;10.00;;;19.30;99.90;;;;;;5003352;28;20493;-85
2023/04/17 14:48:09;;;;;;;11.40;9.25;;;18.10;99.90;;;;;;5003567;28;20107;-84
2023/04/17 14:50:35;;;;;;;9.35;8.45;;;18.00;99.90;;;;;;5000355;28;20554;-82
2023/04/17 14:53:02;;;;;;;16.83;9.20;;;17.90;99.90;;;;;;4983735;28;20053;-81
2023/04/17 14:55:28;;;;;;;11.23;9.40;;;18.00;99.90;;;;;;5001660;28;20053;-84
2023/04/17 14:57:53;;;;;;;9.05;7.78;;;17.80;99.90;;;;;;5009332;28;20068;-86
2023/04/17 15:00:20;;;;;;;10.50;8.52;;;19.10;99.90;;;;;;5019951;28;20052;-84
2023/04/17 15:02:49;;;;;;;9.52;8.10;;;17.60;99.90;;;;;;4983702;28;20049;-82
2023/04/17 15:05:17;;;;;;;8.25;7.45;;;17.50;99.90;;;;;;5018100;28;20056;-86
2023/04/17 15:07:44;;;;;;;10.50;8.25;;;17.50;99.90;;;;;;4999059;28;20041;-85
2023/04/17 15:10:10;;;;;;;9.70;8.68;;;17.50;99.90;;;;;;5017684;28;20426;-86
2023/04/17 15:12:35;;;;;;;8.70;7.75;;;16.80;99.90;;;;;;4985541;28;20054;-86
2023/04/17 15:15:01;;;;;;;9.13;6.95;;;17.80;99.90;;;;;;4985169;28;20060;-85
2023/04/17 15:17:27;;;;;;;7.93;7.13;;;17.70;99.90;;;;;;4982374;28;20065;-83
2023/04/17 15:19:56;;;;;;;10.60;8.02;;;17.00;99.90;;;;;;4976681;28;20049;-85
2023/04/17 15:22:25;;;;;;;10.48;8.00;;;17.40;99.90;;;;;;4990661;28;20056;-86
2023/04/17 15:24:51;;;;;;;9.35;7.80;;;16.90;99.90;;;;;;4986958;28;20167;-85
2023/04/17 15:27:17;;;;;;;12.60;7.60;;;16.90;99.90;;;;;;4979427;28;20137;-84
2023/04/17 15:29:44;;;;;;;12.95;9.10;;;16.90;99.90;;;;;;5001207;28;20196;-86
2023/04/17 15:32:10;;;;;;;12.57;9.02;;;16.80;99.90;;;;;;5002565;28;20056;-84
2023/04/17 15:34:36;;;;;;;9.10;8.20;;;18.00;99.90;;;;;;5016847;28;20057;-84
2023/04/17 15:37:05;;;;;;;12.85;9.85;;;16.70;99.90;;;;;;4998129;28;20076;-84
2023/04/17 15:39:30;;;;;;;13.43;12.02;;;16.60;99.90;;;;;;4986656;28;20049;-85
2023/04/17 15:41:57;;;;;;;13.73;10.35;;;18.50;99.90;;;;;;5015178;28;20063;-85
2023/04/17 15:44:23;;;;;;;10.05;9.05;;;17.80;99.90;;;;;;4986295;28;20065;-87
2023/04/17 15:46:49;;;;;;;11.60;9.57;;;17.00;99.90;;;;;;4984192;28;20505;-84
2023/04/17 15:49:15;;;;;;;14.20;10.32;;;16.00;99.90;;;;;;5010691;28;20508;-85
2023/04/17 15:51:41;;;;;;;10.95;9.70;;;16.50;99.90;;;;;;4985114;28;20152;-86
2023/04/17 15:54:07;;;;;;;12.65;9.65;;;16.50;99.90;;;;;;5003028;28;20058;-84
2023/04/17 15:56:34;;;;;;;11.18;9.05;;;16.40;99.90;;;;;;5021205;28;20069;-85
2023/04/17 15:59:00;;;;;;;9.80;8.35;;;17.90;99.90;;;;;;4985790;28;20080;-85
2023/04/17 16:01:29;;;;;;;13.63;8.85;;;16.20;99.90;;;;;;4987546;28;20127;-85
2023/04/17 16:03:54;;;;;;;15.73;9.32;;;18.10;99.90;;;;;;4988418;28;20057;-85
2023/04/17 16:06:20;;;;;;;11.63;9.73;;;16.20;99.90;;;;;;4991878;28;20053;-84
2023/04/17 16:08:47;;;;;;;15.13;10.88;;;17.50;99.90;;;;;;5026632;28;20516;-91
2023/04/17 16:11:12;;;;;;;12.48;10.10;;;16.10;99.90;;;;;;5014076;28;20136;-84
2023/04/17 16:13:38;;;;;;;12.43;9.88;;;17.90;99.90;;;;;;4992489;28;20121;-82
2023/04/17 16:16:04;;;;;;;11.43;9.95;;;16.00;99.90;;;;;;4990399;28;20061;-84
2023/04/17 16:18:30;;;;;;;10.70;8.02;;;15.90;99.90;;;;;;4988087;28;20041;-83
2023/04/17 16:20:55;;;;;;;15.63;8.75;;;16.50;99.90;;;;;;4991719;28;20045;-86
2023/04/17 16:23:21;;;;;;;10.90;7.75;;;16.00;99.90;;;;;;5009306;28;20129;-79
2023/04/17 16:25:49;;;;;;;10.98;8.50;;;15.90;99.90;;;;;;4991775;28;20556;-78
2023/04/17 16:28:14;;;;;;;10.23;7.22;;;15.80;99.90;;;;;;5011394;28;20044;-81
2023/04/17 16:30:40;;;;;;;9.60;7.25;;;15.80;99.90;;;;;;4991692;28;20057;-81
2023/04/17 16:33:05;;;;;;;7.68;6.80;;;15.90;99.90;;;;;;5011554;28;20440;-79
2023/04/17 16:35:31;;;;;;;10.00;7.75;;;15.70;99.90;;;;;;5006260;28;20049;-77
2023/04/17 16:37:57;;;;;;;8.35;7.40;;;15.90;99.90;;;;;;5010330;28;20425;-83
2023/04/17 16:40:25;;;;;;;14.75;8.15;;;15.60;99.90;;;;;;5029003;28;20535;-82
2023/04/17 16:42:51;;;;;;;10.13;8.40;;;15.60;99.90;;;;;;4993274;28;20401;-80
2023/04/17 16:45:16;;;;;;;9.98;7.82;;;15.50;99.90;;;;;;4675031;28;9999632;-83
2023/04/17 16:47:42;;;;;;;11.35;8.00;;;15.00;99.90;;;;;;5007159;28;20053;-83
2023/04/17 16:50:10;;;;;;;12.88;8.68;;;15.40;99.90;;;;;;5002802;28;20136;-83
2023/04/17 16:52:40;;;;;;;10.20;8.75;;;15.30;99.90;;;;;;5024979;28;20065;-89
2023/04/17 16:55:08;;;;;;;10.73;8.75;;;15.20;99.90;;;;;;5013892;28;20057;-82
2023/04/17 16:57:41;;;;;;;12.65;9.00;;;15.30;99.90;;;;;;5015153;28;20620;-82
2023/04/17 17:00:09;;;;;;;11.47;8.63;;;15.30;99.90;;;;;;4999702;28;20049;-91
2023/04/17 17:02:39;;;;;;;9.23;8.23;;;15.10;99.90;;;;;;5010961;28;20571;-86
2023/04/17 17:05:06;;;;;;;9.90;8.38;;;15.10;99.90;;;;;;5029795;28;20045;-82
2023/04/17 17:07:32;;;;;;;11.68;8.32;;;15.00;99.90;;;;;;5004112;28;20053;-89
2023/04/17 17:10:02;;;;;;;9.90;8.48;;;16.50;99.90;;;;;;4977470;28;20059;-85
2023/04/17 17:12:29;;;;;;;12.32;8.90;;;14.80;99.90;;;;;;4988224;28;20084;-82
2023/04/17 17:15:05;;;;;;;14.10;9.23;;;14.70;99.90;;;;;;5035686;28;20096;-82
2023/04/17 17:18:21;;;;;;;11.00;9.27;;;14.70;99.90;;;;;;5034096;28;20045;-87
2023/04/17 17:25:14;;;;;;;14.25;9.70;;;14.40;99.90;;;;;;4997181;28;20412;-89
2023/04/17 17:27:42;;;;;;;12.82;9.85;;;14.30;99.90;;;;;;4993718;28;20049;-84
2023/04/17 17:30:09;;;;;;;13.48;9.63;;;14.20;99.90;;;;;;5033837;28;20053;-83
2023/04/17 17:32:39;;;;;;;17.67;9.68;;;14.20;99.90;;;;;;4989066;28;20121;-87
2023/04/17 17:35:06;;;;;;;13.73;10.05;;;14.10;99.90;;;;;;4971106;28;20060;-87
2023/04/17 17:37:44;;;;;;;11.23;9.93;;;14.00;99.90;;;;;;5017504;28;20049;-86
2023/04/17 17:48:09;;;;;;;14.55;10.07;;;13.60;99.90;;;;;;4947761;28;20109;-84
2023/04/17 17:50:35;;;;;;;14.75;9.75;;;13.40;99.90;;;;;;4890646;29;20126;-86
2023/04/17 17:53:03;;;;;;;12.02;10.32;;;13.40;99.90;;;;;;4929963;29;20134;-86
2023/04/17 17:55:32;;;;;;;15.77;10.10;;;13.20;99.90;;;;;;4923914;29;20480;-85
2023/04/17 17:57:57;;;;;;;15.32;9.32;;;14.80;99.90;;;;;;4930968;29;20542;-84
2023/04/17 18:00:23;;;;;;;13.27;9.63;;;13.00;99.90;;;;;;4939256;28;20086;-82
2023/04/17 18:02:54;;;;;;;15.43;9.65;;;12.90;99.90;;;;;;4939525;28;20503;-84
2023/04/17 18:05:29;;;;;;;15.35;10.57;;;12.80;99.90;;;;;;4939308;28;20074;-87
2023/04/17 18:07:58;;;;;;;12.20;9.73;;;;;;;;;;4924795;28;20129;-83
2023/04/17 18:10:24;;;;;;;12.93;10.05;;;12.70;99.90;;;;;;4941537;28;20511;-84
2023/04/17 18:12:50;;;;;;;12.75;10.48;;;15.10;99.90;;;;;;4911141;29;20062;-84
2023/04/17 18:15:18;;;;;;;14.45;10.95;;;12.60;99.90;;;;;;4921517;29;20479;-84
2023/04/17 18:17:44;;;;;;;13.10;10.65;;;;;;;;;;4933364;28;20127;-83
2023/04/17 18:20:10;;;;;;;17.50;10.82;;;12.40;99.90;;;;;;4956630;28;20187;-86
2023/04/17 18:22:37;;;;;;;15.35;11.70;;;12.30;99.90;;;;;;4933956;28;20470;-83
2023/04/17 18:25:07;;;;;;;14.80;11.38;;;14.70;99.90;;;;;;4956158;28;20063;-85
2023/04/17 18:27:35;;;;;;;16.08;11.75;;;12.20;99.90;;;;;;4939715;28;20059;-85
2023/04/17 18:30:02;;;;;;;13.52;11.52;;;12.20;99.90;;;;;;4953652;28;20129;-85
2023/04/17 18:32:30;;;;;;;15.18;12.43;;;12.10;99.90;;;;;;4952515;28;20097;-82
2023/04/17 18:35:00;;;;;;;17.60;11.27;;;14.10;99.90;;;;;;4963617;28;20084;-81
2023/04/17 18:37:28;;;;;;;12.85;11.43;;;12.00;99.90;;;;;;5003862;28;20045;-86
2023/04/17 18:39:54;;;;;;;16.45;12.45;;;11.90;99.90;;;;;;4982061;28;20080;-86
2023/04/17 18:42:20;;;;;;;18.83;13.00;;;11.80;99.90;;;;;;4987032;28;20041;-84
2023/04/17 18:44:46;;;;;;;17.90;12.60;;;11.80;99.90;;;;;;4999823;28;20061;-84
2023/04/17 18:47:12;;;;;;;15.35;11.48;;;11.80;99.90;;;;;;5013600;28;20049;-84
2023/04/17 18:49:38;;;;;;;16.45;12.35;;;11.60;99.90;;;;;;4981635;28;20369;-85
2023/04/17 18:52:04;;;;;;;15.77;12.88;;;11.70;99.90;;;;;;4973682;28;20112;-84
2023/04/17 18:54:31;;;;;;;19.40;12.48;;;10.60;99.90;;;;;;4984593;28;20093;-85
2023/04/17 18:57:08;;;;;;;;;;;;;;;;;;;;;
2023/04/17 18:59:39;;;;;;;18.40;13.35;;;9.30;99.90;;;;;;4983608;28;20699;-86
2023/04/17 19:02:08;;;;;;;15.68;12.70;;;;;;;;;;4984096;28;20061;-85
2023/04/17 19:04:44;;;;;;;15.73;12.02;;;11.50;99.90;;;;;;4968583;28;20133;-86
2023/04/17 19:07:11;;;;;;;19.67;12.88;;;;;;;;;;4968382;28;20569;-86
2023/04/17 19:09:39;;;;;;;17.00;12.70;;;11.40;99.90;;;;;;4966239;28;20049;-87
2023/04/17 19:12:05;;;;;;;14.82;11.88;;;11.30;99.90;;;;;;4964186;28;20050;-86
2023/04/17 19:14:31;;;;;;;14.48;11.52;;;;;;;;;;5004797;28;20050;-85
2023/04/17 19:17:01;;;;;;;22.70;11.88;;;11.20;99.90;;;;;;4985149;28;20042;-87
2023/04/17 19:19:35;;;;;;;18.73;13.10;;;9.60;99.90;;;;;;4994190;28;20585;-87
2023/04/17 19:22:01;;;;;;;19.13;13.02;;;12.80;99.90;;;;;;4966676;28;20137;-88
2023/04/17 19:24:31;;;;;;;18.55;11.68;;;12.90;99.90;;;;;;4982168;28;20043;-87
2023/04/17 19:27:05;;;;;;;21.05;12.32;;;;;;;;;;4972365;28;20064;-88
2023/04/17 19:29:40;;;;;;;13.00;11.40;;;11.10;99.90;;;;;;4965385;28;20129;-88
2023/04/17 19:32:14;;;;;;;16.77;12.13;;;11.40;99.90;;;;;;4965217;28;20070;-88
2023/04/17 19:34:43;;;;;;;22.02;12.05;;;11.90;99.90;;;;;;4966570;28;20134;-86
2023/04/17 19:37:09;;;;;;;13.55;11.80;;;11.30;99.90;;;;;;4973142;28;20136;-86
2023/04/17 19:39:57;;;;;;;19.98;13.07;;;11.20;99.90;;;;;;4990374;28;20062;-85
2023/04/17 19:42:23;;;;;;;15.57;11.90;;;10.90;99.90;;;;;;4978086;28;20062;-86
2023/04/17 19:44:49;;;;;;;17.05;11.48;;;12.50;99.90;;;;;;5007392;28;20052;-86
2023/04/17 19:47:15;;;;;;;36.22;12.63;;;13.00;99.90;;;;;;4976001;28;20478;-88
2023/04/17 19:49:41;;;;;;;17.13;12.05;;;10.90;99.90;;;;;;4972742;28;20533;-88
2023/04/17 19:52:06;;;;;;;12.23;10.75;;;10.80;99.90;;;;;;5010230;28;20862;-86
2023/04/17 19:54:32;;;;;;;15.38;9.95;;;13.00;99.90;;;;;;5008768;28;20084;-86
2023/04/17 19:57:01;;;;;;;15.93;10.10;;;12.70;99.90;;;;;;4980656;28;20129;-88
2023/04/17 19:59:32;;;;;;;19.98;9.50;;;11.10;99.90;;;;;;5027823;28;20065;-87
2023/04/17 20:01:59;;;;;;;11.73;9.50;;;12.30;99.90;;;;;;4990922;28;20046;-84
2023/04/17 20:04:25;;;;;;;12.52;9.25;;;10.50;99.90;;;;;;4994715;28;20145;-87
2023/04/17 20:06:50;;;;;;;11.52;8.70;;;11.30;99.90;;;;;;4994557;28;20081;-88
2023/04/17 20:09:16;;;;;;;13.27;8.43;;;11.00;99.90;;;;;;4988026;28;20097;-87